Time;durP1;ratioP1;P1;durP2;ratioP2;P2;SDS_P1;SDS_P2;PMS_P1;PMS_P2;Temp;Humidity;BMP_temperature;BMP_pressure;BME280_temperature;BME280_humidity;BME280_pressure;Samples;Min_cycle;Max_cycle;Signal;HPM_P1;HPM_P2
2023/10/17 00:02:26;;;;;;;13.60;10.00;;;22.40;93.70;;;;;;6212112;28;88912;-67
2023/10/17 00:05:30;;;;;;;11.13;9.68;;;22.40;93.70;;;;;;6211547;28;87965;-67
2023/10/17 00:08:33;;;;;;;10.40;9.30;;;22.40;93.70;;;;;;6220032;28;89129;-67
2023/10/17 00:11:47;;;;;;;12.85;10.10;;;22.40;93.70;;;;;;6207505;28;89092;-68
2023/10/17 00:14:58;;;;;;;10.77;9.30;;;22.40;93.70;;;;;;6209170;28;88333;-67
2023/10/17 00:18:04;;;;;;;11.20;9.38;;;22.40;94.20;;;;;;6217056;28;91029;-67
2023/10/17 00:21:17;;;;;;;10.38;9.10;;;22.40;93.70;;;;;;6202837;28;88286;-68
2023/10/17 00:24:23;;;;;;;11.13;9.02;;;22.40;93.80;;;;;;6209360;28;88998;-67
2023/10/17 00:27:25;;;;;;;10.65;9.43;;;22.30;93.80;;;;;;6216890;28;89132;-67
2023/10/17 00:30:30;;;;;;;10.48;8.95;;;22.30;93.80;;;;;;6209435;28;90148;-66
2023/10/17 00:33:36;;;;;;;9.75;8.70;;;22.40;93.80;;;;;;6211064;28;88945;-68
2023/10/17 00:36:47;;;;;;;10.52;9.35;;;22.30;93.80;;;;;;6211912;28;88991;-67
2023/10/17 00:39:51;;;;;;;10.43;8.90;;;22.40;93.80;;;;;;6222219;28;88969;-67
2023/10/17 00:42:53;;;;;;;12.23;9.50;;;22.30;93.70;;;;;;6213411;28;89468;-67
2023/10/17 00:45:55;;;;;;;10.13;9.02;;;22.30;93.70;;;;;;6211904;28;89476;-67
2023/10/17 00:48:57;;;;;;;11.50;9.20;;;22.30;93.80;;;;;;6218802;28;89710;-67
2023/10/17 00:52:03;;;;;;;11.40;9.50;;;22.30;93.70;;;;;;6219478;28;88497;-67
2023/10/17 00:55:11;;;;;;;10.13;9.13;;;22.30;93.80;;;;;;6215431;28;88774;-64
2023/10/17 00:58:13;;;;;;;10.75;9.50;;;22.30;93.80;;;;;;6224260;28;89062;-67
2023/10/17 01:01:16;;;;;;;10.98;9.75;;;22.30;94.30;;;;;;6226332;28;90120;-67
2023/10/17 01:04:22;;;;;;;11.55;9.30;;;22.30;94.40;;;;;;6217813;28;88995;-69
2023/10/17 01:07:29;;;;;;;12.80;10.10;;;22.30;94.40;;;;;;6217466;28;88718;-67
2023/10/17 01:10:33;;;;;;;10.35;9.25;;;22.30;94.40;;;;;;6220750;28;89515;-69
2023/10/17 01:13:37;;;;;;;11.93;9.40;;;22.30;94.40;;;;;;6212003;28;89073;-68
2023/10/17 01:16:39;;;;;;;11.90;9.38;;;22.40;94.50;;;;;;6221816;28;89462;-70
2023/10/17 01:19:42;;;;;;;13.18;9.95;;;22.40;94.50;;;;;;6223713;28;89156;-69
2023/10/17 01:22:45;;;;;;;10.20;9.05;;;22.40;94.40;;;;;;6219103;28;88300;-68
2023/10/17 01:25:51;;;;;;;10.98;9.40;;;22.40;94.50;;;;;;6222359;28;88973;-69
2023/10/17 01:28:55;;;;;;;13.40;9.57;;;22.40;94.50;;;;;;6223399;28;89333;-69
2023/10/17 01:31:57;;;;;;;14.02;10.23;;;22.40;94.40;;;;;;6226048;28;88848;-68
2023/10/17 01:34:59;;;;;;;11.32;9.75;;;22.30;94.30;;;;;;6223733;28;88316;-70
2023/10/17 01:38:01;;;;;;;10.73;9.63;;;22.30;94.30;;;;;;6214636;28;89197;-69
2023/10/17 01:41:05;;;;;;;10.40;9.30;;;22.30;94.20;;;;;;6220282;28;89361;-71
2023/10/17 01:44:08;;;;;;;10.60;9.52;;;22.30;94.30;;;;;;6225863;28;87049;-71
2023/10/17 01:47:10;;;;;;;10.85;9.60;;;22.30;94.30;;;;;;6218053;28;87743;-70
2023/10/17 01:50:12;;;;;;;10.90;9.25;;;22.30;94.30;;;;;;6219832;28;89096;-69
2023/10/17 01:53:14;;;;;;;11.02;9.27;;;22.30;94.30;;;;;;6220718;28;88253;-70
2023/10/17 01:56:20;;;;;;;11.13;9.32;;;22.20;94.30;;;;;;6229080;28;89002;-70
2023/10/17 01:59:26;;;;;;;14.57;9.45;;;22.30;94.30;;;;;;6224089;28;89297;-70
2023/10/17 02:02:28;;;;;;;11.52;9.70;;;22.20;94.20;;;;;;6218112;28;90069;-69
2023/10/17 02:05:30;;;;;;;9.68;8.40;;;22.30;94.20;;;;;;6219988;28;89158;-69
2023/10/17 02:08:33;;;;;;;11.40;9.15;;;22.20;94.20;;;;;;6222624;28;88297;-70
2023/10/17 02:11:43;;;;;;;9.73;8.73;;;22.30;94.20;;;;;;6211974;28;89438;-70
2023/10/17 02:14:45;;;;;;;10.63;9.48;;;22.20;94.20;;;;;;6217136;28;89304;-70
2023/10/17 02:17:47;;;;;;;10.15;9.02;;;22.30;94.20;;;;;;6217092;28;89487;-70
2023/10/17 02:20:51;;;;;;;10.30;9.20;;;22.20;94.20;;;;;;6217603;28;90293;-69
2023/10/17 02:23:53;;;;;;;11.02;9.32;;;22.20;94.20;;;;;;6224221;28;88673;-69
2023/10/17 02:26:58;;;;;;;11.13;8.93;;;22.20;94.40;;;;;;6218573;28;89050;-70
2023/10/17 02:30:00;;;;;;;10.45;9.25;;;22.20;94.40;;;;;;6213485;28;89080;-69
2023/10/17 02:33:11;;;;;;;9.48;8.48;;;22.20;94.30;;;;;;6217206;28;90367;-69
2023/10/17 02:36:13;;;;;;;9.65;8.65;;;22.20;94.30;;;;;;6212171;28;89256;-69
2023/10/17 02:39:15;;;;;;;10.73;9.38;;;22.10;94.40;;;;;;6217479;28;89335;-69
2023/10/17 02:42:18;;;;;;;9.57;8.25;;;22.20;94.50;;;;;;6214440;28;89589;-69
2023/10/17 02:45:26;;;;;;;11.10;9.13;;;22.10;94.50;;;;;;6216798;28;88963;-69
2023/10/17 02:48:27;;;;;;;9.85;8.85;;;22.20;94.50;;;;;;6216204;28;89435;-70
2023/10/17 02:51:33;;;;;;;10.23;9.15;;;22.20;94.50;;;;;;6224728;28;89048;-70
2023/10/17 02:54:55;;;;;;;9.35;8.18;;;22.20;94.40;;;;;;6211364;28;89082;-70
2023/10/17 02:57:59;;;;;;;10.93;9.18;;;22.20;94.80;;;;;;6222750;28;88034;-71
2023/10/17 03:01:01;;;;;;;10.30;8.77;;;22.10;94.40;;;;;;6225840;28;89125;-70
2023/10/17 03:04:07;;;;;;;11.82;9.73;;;22.10;94.40;;;;;;6223782;28;90024;-71
2023/10/17 03:07:11;;;;;;;9.77;8.50;;;22.10;94.40;;;;;;6216321;28;89048;-71
2023/10/17 03:10:20;;;;;;;11.52;9.05;;;22.10;94.40;;;;;;6216545;28;89004;-71
2023/10/17 03:13:24;;;;;;;10.52;8.55;;;22.10;94.40;;;;;;6224482;28;89367;-71
2023/10/17 03:16:26;;;;;;;9.20;8.30;;;22.10;94.40;;;;;;6216239;28;89157;-71
2023/10/17 03:19:28;;;;;;;10.43;9.02;;;22.10;94.40;;;;;;6211360;28;89060;-70
2023/10/17 03:22:30;;;;;;;9.25;8.27;;;22.10;94.40;;;;;;6218762;28;89386;-71
2023/10/17 03:25:37;;;;;;;9.52;8.45;;;22.10;94.40;;;;;;6218157;28;88533;-70
2023/10/17 03:28:42;;;;;;;9.48;8.38;;;22.10;94.40;;;;;;6214260;28;89312;-70
2023/10/17 03:31:48;;;;;;;9.93;8.57;;;22.10;94.40;;;;;;6216433;28;89142;-70
2023/10/17 03:34:56;;;;;;;11.20;8.95;;;22.10;94.30;;;;;;6213783;28;90706;-71
2023/10/17 03:38:00;;;;;;;11.70;9.25;;;22.10;94.20;;;;;;6219389;28;89131;-70
2023/10/17 03:41:04;;;;;;;10.48;8.40;;;22.10;94.00;;;;;;6205394;28;88899;-70
2023/10/17 03:44:08;;;;;;;9.30;8.38;;;22.10;94.00;;;;;;6229010;28;89087;-70
2023/10/17 03:47:10;;;;;;;10.85;8.85;;;22.10;94.00;;;;;;6222188;28;89063;-70
2023/10/17 03:50:22;;;;;;;11.68;9.02;;;22.10;94.00;;;;;;6213761;28;89383;-70
2023/10/17 03:53:28;;;;;;;9.38;8.38;;;22.10;93.90;;;;;;6229482;28;89172;-70
2023/10/17 03:56:44;;;;;;;9.00;7.97;;;22.20;93.90;;;;;;6208842;28;88534;-68
2023/10/17 03:59:52;;;;;;;12.73;8.95;;;22.20;93.90;;;;;;6224110;28;88114;-69
2023/10/17 04:02:54;;;;;;;9.55;8.10;;;22.20;93.80;;;;;;6216227;28;89270;-68
2023/10/17 04:06:02;;;;;;;9.20;8.07;;;22.30;93.80;;;;;;6205283;28;88908;-68
2023/10/17 04:09:26;;;;;;;8.68;7.78;;;22.30;93.80;;;;;;6228149;28;89040;-69
2023/10/17 04:12:38;;;;;;;9.05;7.88;;;22.30;93.70;;;;;;6219830;28;89306;-68
2023/10/17 04:15:43;;;;;;;9.57;8.10;;;22.40;93.60;;;;;;6207626;28;88301;-68
2023/10/17 04:18:48;;;;;;;9.15;8.00;;;22.50;93.60;;;;;;6223173;28;89047;-69
2023/10/17 04:22:01;;;;;;;8.93;8.00;;;22.50;93.50;;;;;;6210109;28;89068;-69
2023/10/17 04:25:17;;;;;;;8.02;7.22;;;22.50;93.40;;;;;;6219842;28;89131;-68
2023/10/17 04:28:20;;;;;;;8.75;7.75;;;22.50;93.40;;;;;;6213242;28;87272;-69
2023/10/17 04:31:26;;;;;;;9.05;7.90;;;22.50;93.30;;;;;;6209073;28;88998;-68
2023/10/17 04:34:28;;;;;;;9.57;8.25;;;22.60;93.30;;;;;;6222508;28;88239;-69
2023/10/17 04:37:34;;;;;;;8.93;7.88;;;22.60;93.30;;;;;;6219228;28;90003;-68
2023/10/17 04:40:42;;;;;;;9.40;7.43;;;22.60;93.20;;;;;;6221252;28;89362;-69
2023/10/17 04:43:54;;;;;;;8.73;7.82;;;22.60;93.20;;;;;;6219666;28;87956;-69
2023/10/17 04:47:07;;;;;;;10.50;7.72;;;22.70;93.20;;;;;;6226298;28;89058;-69
2023/10/17 04:50:11;;;;;;;8.63;7.53;;;22.70;93.10;;;;;;6210773;28;89526;-69
2023/10/17 04:53:19;;;;;;;11.43;8.07;;;22.70;93.10;;;;;;6211476;28;89127;-69
2023/10/17 04:56:22;;;;;;;10.63;8.90;;;22.70;93.10;;;;;;6221004;28;89145;-69
2023/10/17 05:02:55;;;;;;;8.85;7.95;;;22.80;92.80;;;;;;6225136;28;89037;-70
2023/10/17 06:19:26;;;;;;;7.90;6.10;;;23.10;92.00;;;;;;6226969;28;87144;-71
2023/10/17 06:26:46;;;;;;;6.55;5.88;;;23.10;91.90;;;;;;6228581;28;88767;-71
2023/10/17 06:36:25;;;;;;;7.13;5.93;;;23.10;91.90;;;;;;6138722;28;87703;-70
2023/10/17 06:39:36;;;;;;;6.68;5.75;;;23.20;91.90;;;;;;6223471;28;88406;-70
2023/10/17 06:42:40;;;;;;;6.88;5.90;;;23.20;91.80;;;;;;6212534;28;90824;-71
2023/10/17 06:45:54;;;;;;;6.70;6.00;;;23.20;91.80;;;;;;6217988;28;89502;-71
2023/10/17 06:48:58;;;;;;;7.05;5.50;;;23.20;91.80;;;;;;6218880;28;89802;-71
2023/10/17 06:52:18;;;;;;;7.25;5.93;;;23.30;91.80;;;;;;6216247;28;87583;-70
2023/10/17 06:55:21;;;;;;;6.85;5.78;;;23.30;91.80;;;;;;6215041;28;89410;-70
2023/10/17 06:58:27;;;;;;;6.05;5.45;;;23.20;91.70;;;;;;6210080;28;87961;-71
2023/10/17 07:01:32;;;;;;;6.32;5.45;;;23.30;91.70;;;;;;6219036;28;89173;-70
2023/10/17 07:04:37;;;;;;;7.03;5.60;;;23.30;91.70;;;;;;6220701;28;89153;-70
2023/10/17 07:07:40;;;;;;;5.90;5.30;;;23.30;91.70;;;;;;6219325;28;89059;-71
2023/10/17 07:10:54;;;;;;;6.43;5.25;;;23.40;92.00;;;;;;6218869;28;88407;-71
2023/10/17 07:17:27;;;;;;;5.88;5.07;;;23.30;91.60;;;;;;6200626;28;87752;-70
2023/10/17 07:21:09;;;;;;;5.50;4.80;;;23.30;91.60;;;;;;6218826;28;88936;-70
2023/10/17 07:23:55;;;;;;;6.78;5.53;;;23.30;91.60;;;;;;6214698;28;89206;-70
2023/10/17 07:26:58;;;;;;;6.30;5.10;;;23.40;91.60;;;;;;6209181;28;89005;-71
2023/10/17 07:30:10;;;;;;;9.15;6.00;;;23.40;91.60;;;;;;6215768;28;89467;-70
2023/10/17 07:33:17;;;;;;;8.48;5.70;;;23.40;91.50;;;;;;6207071;28;89001;-71
2023/10/17 07:36:19;;;;;;;6.32;5.18;;;23.40;91.50;;;;;;6228854;28;88940;-70
2023/10/17 07:39:24;;;;;;;5.38;4.88;;;23.40;91.50;;;;;;6206637;28;88990;-70
2023/10/17 07:42:31;;;;;;;5.55;4.93;;;23.40;91.50;;;;;;6224582;28;90560;-71
2023/10/17 07:45:41;;;;;;;5.65;5.05;;;23.50;91.50;;;;;;6218195;28;89236;-70
2023/10/17 07:48:48;;;;;;;5.32;4.72;;;23.40;91.40;;;;;;6219049;28;89098;-70
2023/10/17 07:51:50;;;;;;;5.75;4.70;;;23.40;91.40;;;;;;6215329;28;90010;-70
2023/10/17 07:54:57;;;;;;;5.28;4.78;;;23.40;91.40;;;;;;6221270;28;89373;-71
2023/10/17 07:58:06;;;;;;;7.40;5.35;;;23.50;91.40;;;;;;6220892;28;88880;-71
2023/10/17 08:01:14;;;;;;;6.45;5.05;;;23.50;91.40;;;;;;6213541;28;89142;-71
2023/10/17 08:04:23;;;;;;;5.43;4.90;;;23.50;91.40;;;;;;6218620;28;89187;-71
2023/10/17 08:07:25;;;;;;;4.93;4.47;;;23.50;91.40;;;;;;6217470;28;89177;-71
2023/10/17 08:10:35;;;;;;;5.75;4.72;;;23.50;91.30;;;;;;6230569;28;88995;-71
2023/10/17 08:13:37;;;;;;;4.93;4.45;;;23.50;91.30;;;;;;6232881;28;87285;-72
2023/10/17 08:16:42;;;;;;;4.88;4.20;;;23.50;91.30;;;;;;6230360;28;88013;-70
2023/10/17 08:23:06;;;;;;;4.93;4.43;;;23.60;91.30;;;;;;6226328;28;89653;-71
2023/10/17 08:26:11;;;;;;;5.22;4.70;;;23.50;91.20;;;;;;6212420;28;89071;-71
2023/10/17 08:29:13;;;;;;;5.30;4.63;;;23.60;91.20;;;;;;6210742;28;87878;-70
2023/10/17 08:35:37;;;;;;;5.40;3.97;;;23.60;91.10;;;;;;6228902;28;88733;-71
2023/10/17 08:38:40;;;;;;;4.93;4.05;;;23.60;91.10;;;;;;6226227;28;87908;-70
2023/10/17 08:41:41;;;;;;;5.55;4.70;;;23.60;91.00;;;;;;6219281;28;88077;-70
2023/10/17 08:44:46;;;;;;;4.60;3.95;;;23.60;91.00;;;;;;6221744;28;88310;-70
2023/10/17 08:47:50;;;;;;;4.78;4.28;;;23.60;91.00;;;;;;6222304;28;89136;-71
2023/10/17 08:50:55;;;;;;;5.18;4.15;;;23.60;91.00;;;;;;6229258;28;88122;-71
2023/10/17 08:53:59;;;;;;;4.72;4.20;;;23.60;91.00;;;;;;6231803;28;89865;-70
2023/10/17 08:57:03;;;;;;;4.40;4.00;;;23.60;91.00;;;;;;6220872;28;89066;-70
2023/10/17 09:00:24;;;;;;;4.70;4.20;;;23.60;91.00;;;;;;6229115;28;89186;-70
2023/10/17 09:03:35;;;;;;;4.57;3.80;;;23.60;90.90;;;;;;6232905;28;89268;-72
2023/10/17 09:06:48;;;;;;;4.20;3.80;;;23.60;90.90;;;;;;6219599;28;89139;-71
2023/10/17 09:09:54;;;;;;;4.88;4.10;;;23.60;90.80;;;;;;6228480;28;89004;-71
2023/10/17 09:16:18;;;;;;;6.20;4.32;;;23.60;90.80;;;;;;6216975;28;86739;-70
2023/10/17 09:19:25;;;;;;;5.20;4.30;;;23.60;90.80;;;;;;6221945;28;89138;-71
2023/10/17 09:22:41;;;;;;;3.60;3.30;;;23.60;90.80;;;;;;6221119;28;89034;-72
2023/10/17 09:25:54;;;;;;;5.57;3.88;;;23.60;90.80;;;;;;6226037;28;90032;-70
2023/10/17 09:29:01;;;;;;;3.90;3.50;;;23.70;90.80;;;;;;6221401;28;89062;-71
2023/10/17 09:32:03;;;;;;;4.65;3.78;;;23.60;90.80;;;;;;6226566;28;89891;-70
2023/10/17 09:35:12;;;;;;;4.97;3.95;;;23.70;90.80;;;;;;6219467;28;89176;-70
2023/10/17 09:38:14;;;;;;;6.15;4.22;;;23.70;90.80;;;;;;6223403;28;88753;-71
2023/10/17 09:41:18;;;;;;;4.22;3.67;;;23.70;90.70;;;;;;6230800;28;89033;-71
2023/10/17 09:44:20;;;;;;;4.85;3.70;;;23.60;90.70;;;;;;6220309;28;89077;-70
2023/10/17 09:47:26;;;;;;;3.92;3.33;;;23.70;90.70;;;;;;6224816;28;88295;-71
2023/10/17 09:50:30;;;;;;;4.25;3.42;;;23.70;90.70;;;;;;6216986;28;89146;-72
2023/10/17 09:53:34;;;;;;;3.60;3.30;;;23.70;90.70;;;;;;6211025;28;89037;-71
2023/10/17 09:56:40;;;;;;;4.88;3.72;;;23.70;90.60;;;;;;6219859;28;90017;-71
2023/10/17 09:59:56;;;;;;;4.13;3.47;;;23.70;90.70;;;;;;6220475;28;89356;-71
2023/10/17 10:03:00;;;;;;;3.63;3.17;;;23.70;90.70;;;;;;6221613;28;89074;-71
2023/10/17 10:06:25;;;;;;;7.63;4.28;;;23.70;90.70;;;;;;6216847;28;88498;-71
2023/10/17 10:09:27;;;;;;;3.95;3.55;;;23.70;90.70;;;;;;6216713;28;89088;-71
2023/10/17 10:12:59;;;;;;;3.88;3.47;;;23.70;90.80;;;;;;6226735;28;87923;-71
2023/10/17 10:16:02;;;;;;;4.22;3.42;;;23.70;90.70;;;;;;6225623;28;89133;-70
2023/10/17 10:19:06;;;;;;;3.97;3.42;;;23.70;90.70;;;;;;6211497;28;88247;-71
2023/10/17 10:22:11;;;;;;;3.70;3.10;;;23.70;90.70;;;;;;6230654;28;89087;-70
2023/10/17 10:25:14;;;;;;;4.30;3.50;;;23.70;90.60;;;;;;6220134;28;89250;-71
2023/10/17 10:28:29;;;;;;;4.03;3.42;;;23.70;90.60;;;;;;6207317;28;90399;-71
2023/10/17 10:31:40;;;;;;;3.33;3.00;;;23.70;90.60;;;;;;6214715;28;89065;-69
2023/10/17 10:34:45;;;;;;;4.65;3.35;;;23.70;90.60;;;;;;6219223;28;87996;-70
2023/10/17 10:37:54;;;;;;;3.42;3.13;;;23.80;90.60;;;;;;6208822;28;89051;-70
2023/10/17 10:40:56;;;;;;;3.90;3.20;;;23.70;90.60;;;;;;6214384;28;89130;-70
2023/10/17 10:44:01;;;;;;;3.45;3.10;;;23.80;90.60;;;;;;6222956;28;89353;-70
2023/10/17 10:47:03;;;;;;;3.78;3.30;;;23.70;90.60;;;;;;6212798;28;89179;-70
2023/10/17 10:50:06;;;;;;;3.47;3.08;;;23.70;90.60;;;;;;6216878;28;88695;-70
2023/10/17 10:53:22;;;;;;;3.97;3.30;;;23.70;90.60;;;;;;6208278;28;89010;-69
2023/10/17 10:56:25;;;;;;;5.32;3.42;;;23.70;90.60;;;;;;6217358;28;89364;-70
2023/10/17 10:59:28;;;;;;;3.53;2.90;;;23.80;90.60;;;;;;6218676;28;90239;-71
2023/10/17 11:02:30;;;;;;;3.63;2.90;;;23.80;90.60;;;;;;6219755;28;89275;-70
2023/10/17 11:05:33;;;;;;;3.78;3.20;;;23.70;90.50;;;;;;6206651;28;89123;-71
2023/10/17 11:08:38;;;;;;;3.33;3.03;;;23.80;90.50;;;;;;6218874;28;89216;-71
2023/10/17 11:11:46;;;;;;;3.83;2.90;;;23.70;90.50;;;;;;6211589;28;89046;-71
2023/10/17 11:15:09;;;;;;;4.72;3.25;;;23.80;90.40;;;;;;6219725;28;89034;-70
2023/10/17 11:18:11;;;;;;;3.53;2.90;;;23.80;90.40;;;;;;6217707;28;89089;-70
2023/10/17 11:21:14;;;;;;;3.58;2.85;;;23.80;90.40;;;;;;6210094;28;88405;-72
2023/10/17 11:24:18;;;;;;;4.20;3.25;;;23.80;90.40;;;;;;6217629;28;88262;-71
2023/10/17 11:27:20;;;;;;;3.70;3.00;;;23.80;90.40;;;;;;6216005;28;89033;-70
2023/10/17 11:30:32;;;;;;;4.28;3.30;;;23.80;90.40;;;;;;6217589;28;90070;-70
2023/10/17 11:33:37;;;;;;;3.22;2.92;;;23.80;90.40;;;;;;6222679;28;89035;-71
2023/10/17 11:36:46;;;;;;;3.92;2.92;;;23.80;90.30;;;;;;6213190;28;89385;-71
2023/10/17 11:39:51;;;;;;;4.35;2.88;;;23.80;90.40;;;;;;6211747;28;87951;-70
2023/10/17 11:42:53;;;;;;;4.95;3.38;;;23.80;90.40;;;;;;6218059;28;89146;-70
2023/10/17 11:45:56;;;;;;;3.22;2.80;;;23.80;90.30;;;;;;6217640;28;89031;-71
2023/10/17 11:49:21;;;;;;;4.53;3.13;;;23.80;90.30;;;;;;6209358;28;88981;-71
2023/10/17 11:52:26;;;;;;;3.58;2.78;;;23.80;90.30;;;;;;6211656;28;88361;-70
2023/10/17 11:55:41;;;;;;;3.45;2.90;;;23.80;90.30;;;;;;6209445;28;89449;-71
2023/10/17 11:58:56;;;;;;;2.92;2.58;;;23.80;90.30;;;;;;6219875;28;88953;-70
2023/10/17 12:02:02;;;;;;;2.83;2.53;;;23.80;90.30;;;;;;6216999;28;90060;-71
2023/10/17 12:05:05;;;;;;;3.00;2.70;;;23.80;90.30;;;;;;6220631;28;89457;-70
2023/10/17 12:08:07;;;;;;;3.95;2.80;;;23.80;90.30;;;;;;6217301;28;89434;-71
2023/10/17 12:11:10;;;;;;;3.03;2.70;;;23.80;90.30;;;;;;6209420;28;88983;-70
2023/10/17 12:14:19;;;;;;;3.58;2.70;;;23.80;90.30;;;;;;6205567;28;87897;-71
2023/10/17 12:17:23;;;;;;;4.55;2.90;;;23.80;90.30;;;;;;6225768;28;89158;-70
2023/10/17 12:20:27;;;;;;;3.33;2.67;;;23.80;90.40;;;;;;6211463;28;89020;-71
2023/10/17 12:23:30;;;;;;;3.53;2.80;;;23.80;90.30;;;;;;6226392;28;88559;-70
2023/10/17 12:26:34;;;;;;;3.28;2.50;;;23.80;90.30;;;;;;6217853;28;88970;-70
2023/10/17 12:29:36;;;;;;;2.97;2.67;;;23.80;90.30;;;;;;6210243;28;89166;-70
2023/10/17 12:32:38;;;;;;;2.90;2.60;;;23.80;90.30;;;;;;6215339;28;90081;-70
2023/10/17 12:35:46;;;;;;;3.67;2.83;;;23.80;90.30;;;;;;6211388;28;91567;-71
2023/10/17 12:38:49;;;;;;;4.22;3.22;;;23.80;90.30;;;;;;6215040;28;89049;-70
2023/10/17 12:41:52;;;;;;;3.72;3.08;;;23.80;90.20;;;;;;6218000;28;89210;-69
2023/10/17 12:44:54;;;;;;;3.10;2.80;;;23.80;90.20;;;;;;6217572;28;89230;-70
2023/10/17 12:47:56;;;;;;;4.28;3.17;;;23.80;90.20;;;;;;6224151;28;88285;-70
2023/10/17 12:50:58;;;;;;;3.50;3.00;;;23.80;90.10;;;;;;6220962;28;89102;-70
2023/10/17 12:54:00;;;;;;;3.80;2.88;;;23.80;90.20;;;;;;6221285;28;87369;-69
2023/10/17 12:57:06;;;;;;;3.22;2.63;;;23.90;90.20;;;;;;6225274;28;88058;-70
2023/10/17 13:00:11;;;;;;;2.90;2.60;;;23.80;90.20;;;;;;6214160;28;89041;-70
2023/10/17 13:03:13;;;;;;;5.00;3.00;;;23.80;90.20;;;;;;6222209;28;90176;-71
2023/10/17 13:06:15;;;;;;;6.95;3.40;;;23.80;90.20;;;;;;6226962;28;89550;-70
2023/10/17 13:09:18;;;;;;;5.95;3.08;;;23.80;90.20;;;;;;6222157;28;89055;-70
2023/10/17 13:12:21;;;;;;;6.95;3.25;;;23.80;90.50;;;;;;6218095;28;88358;-70
2023/10/17 13:15:23;;;;;;;5.47;2.90;;;23.80;90.80;;;;;;6218010;28;89477;-69
2023/10/17 13:18:26;;;;;;;8.93;3.08;;;23.80;91.10;;;;;;6216068;28;89100;-71
2023/10/17 13:21:29;;;;;;;7.75;3.30;;;23.70;91.10;;;;;;6223835;28;89326;-70
2023/10/17 13:24:31;;;;;;;6.45;3.00;;;23.70;91.10;;;;;;6214025;28;88341;-70
2023/10/17 13:27:34;;;;;;;6.00;3.17;;;23.70;91.10;;;;;;6214936;28;89108;-70
2023/10/17 13:30:36;;;;;;;3.35;2.90;;;23.70;91.20;;;;;;6220231;28;89055;-70
2023/10/17 13:33:39;;;;;;;4.90;3.00;;;23.70;91.20;;;;;;6189339;28;88048;-70
2023/10/17 13:36:41;;;;;;;6.28;3.05;;;23.70;91.20;;;;;;6220871;28;89026;-69
2023/10/17 13:39:43;;;;;;;6.47;3.00;;;23.70;91.20;;;;;;6227574;28;89177;-69
2023/10/17 13:42:46;;;;;;;8.80;3.33;;;23.70;91.20;;;;;;6217745;28;89420;-68
2023/10/17 13:45:49;;;;;;;6.20;3.17;;;23.70;91.30;;;;;;6222736;28;89369;-69
2023/10/17 13:48:51;;;;;;;4.88;3.60;;;23.70;89.30;;;;;;6212827;28;89444;-69
2023/10/17 13:51:54;;;;;;;5.15;3.28;;;23.60;84.00;;;;;;6221517;28;89429;-68
2023/10/17 13:54:55;;;;;;;4.43;3.13;;;23.50;82.00;;;;;;6221207;28;88352;-69
2023/10/17 13:58:02;;;;;;;4.70;3.15;;;23.50;80.60;;;;;;6220695;28;89037;-69
2023/10/17 14:01:26;;;;;;;5.32;3.38;;;23.40;79.60;;;;;;6215912;28;87952;-69
2023/10/17 14:04:26;;;;;;;6.15;3.30;;;23.40;79.10;;;;;;6220739;28;89499;-69
2023/10/17 14:07:28;;;;;;;10.23;4.20;;;23.30;78.10;;;;;;6215277;28;89092;-71
2023/10/17 14:10:30;;;;;;;5.75;2.90;;;23.20;77.10;;;;;;6210176;28;89099;-72
2023/10/17 14:13:34;;;;;;;5.45;3.08;;;23.20;78.00;;;;;;6214857;28;89160;-71
2023/10/17 14:16:40;;;;;;;5.97;3.40;;;23.30;79.60;;;;;;6222772;28;89493;-71
2023/10/17 14:19:45;;;;;;;6.90;3.85;;;23.30;80.40;;;;;;6214310;28;89041;-72
2023/10/17 14:23:08;;;;;;;5.00;3.00;;;23.20;81.10;;;;;;6213827;28;89752;-71
2023/10/17 14:26:10;;;;;;;6.97;3.65;;;23.30;81.80;;;;;;6219755;28;88408;-71
2023/10/17 14:29:12;;;;;;;5.97;3.25;;;23.20;82.30;;;;;;6226773;28;88109;-68
2023/10/17 14:32:15;;;;;;;8.40;3.90;;;23.30;82.90;;;;;;6212852;28;89178;-70
2023/10/17 14:35:17;;;;;;;4.22;2.95;;;23.30;83.30;;;;;;6212419;28;89941;-70
2023/10/17 14:38:19;;;;;;;6.18;3.33;;;23.30;83.70;;;;;;6216177;28;90619;-69
2023/10/17 14:41:23;;;;;;;7.00;3.85;;;23.20;84.00;;;;;;6222737;28;89462;-69
2023/10/17 14:44:29;;;;;;;9.35;4.03;;;23.20;84.40;;;;;;6215217;28;89732;-70
2023/10/17 14:47:31;;;;;;;6.20;3.50;;;23.20;84.90;;;;;;6217065;28;89450;-70
2023/10/17 14:50:33;;;;;;;7.38;3.17;;;23.20;85.30;;;;;;6225895;28;89009;-70
2023/10/17 14:53:35;;;;;;;5.85;3.53;;;23.20;85.90;;;;;;6218950;28;89320;-70
2023/10/17 14:56:37;;;;;;;4.68;3.08;;;23.20;86.10;;;;;;6210940;28;88349;-70
2023/10/17 14:59:40;;;;;;;7.50;3.30;;;23.10;86.30;;;;;;6205903;28;89067;-70
2023/10/17 15:02:44;;;;;;;9.90;4.68;;;23.20;86.70;;;;;;6222963;28;89108;-69
2023/10/17 15:05:46;;;;;;;9.95;4.10;;;23.20;86.80;;;;;;6230303;28;89882;-70
2023/10/17 15:08:48;;;;;;;6.82;3.78;;;23.20;86.80;;;;;;6206775;28;89081;-70
2023/10/17 15:11:50;;;;;;;6.90;4.15;;;23.10;86.90;;;;;;6214013;28;88969;-70
2023/10/17 15:14:53;;;;;;;8.30;4.07;;;23.10;87.10;;;;;;6227293;28;89100;-69
2023/10/17 15:17:58;;;;;;;8.93;4.47;;;23.20;87.20;;;;;;6214893;28;89379;-70
2023/10/17 15:21:09;;;;;;;10.23;4.97;;;23.10;87.30;;;;;;6220341;28;88237;-70
2023/10/17 15:24:12;;;;;;;6.93;3.67;;;23.10;87.50;;;;;;6219195;28;89027;-69
2023/10/17 15:27:14;;;;;;;7.50;3.70;;;23.10;87.60;;;;;;6219890;28;88136;-70
2023/10/17 15:30:21;;;;;;;10.10;4.88;;;23.10;87.80;;;;;;6218301;28;89143;-69
2023/10/17 15:33:27;;;;;;;7.15;3.88;;;23.10;87.90;;;;;;6212651;28;88343;-70
2023/10/17 15:36:29;;;;;;;5.60;3.50;;;23.10;88.10;;;;;;6211058;28;89179;-69
2023/10/17 15:39:34;;;;;;;5.78;3.35;;;23.10;88.40;;;;;;6207496;28;87986;-69
2023/10/17 15:42:39;;;;;;;4.18;2.90;;;23.10;88.60;;;;;;6212926;28;88052;-69
2023/10/17 15:45:51;;;;;;;4.57;3.53;;;23.10;88.80;;;;;;6221602;28;87866;-69
2023/10/17 15:48:55;;;;;;;5.45;3.30;;;23.10;88.90;;;;;;6213191;28;89307;-69
2023/10/17 15:51:59;;;;;;;8.50;4.20;;;23.10;89.20;;;;;;6221716;28;88000;-69
2023/10/17 15:55:03;;;;;;;6.65;3.65;;;23.00;88.90;;;;;;6209368;28;88588;-69
2023/10/17 15:58:08;;;;;;;7.20;4.10;;;23.10;89.00;;;;;;6208353;28;87255;-69
2023/10/17 16:01:14;;;;;;;7.63;4.05;;;23.10;89.00;;;;;;6207510;28;87179;-69
2023/10/17 16:04:17;;;;;;;6.85;3.70;;;23.10;89.10;;;;;;6216349;28;87488;-70
2023/10/17 16:07:21;;;;;;;8.73;4.20;;;23.10;89.30;;;;;;6215881;28;88966;-69
2023/10/17 16:10:25;;;;;;;6.20;3.70;;;23.00;89.30;;;;;;6224374;28;90071;-70
2023/10/17 16:13:29;;;;;;;7.50;4.20;;;23.00;89.30;;;;;;6216625;28;88022;-70
2023/10/17 16:16:36;;;;;;;6.68;4.15;;;23.00;89.40;;;;;;6225941;28;88413;-69
2023/10/17 16:19:41;;;;;;;6.63;3.67;;;23.00;89.60;;;;;;6205672;28;88206;-70
2023/10/17 16:22:45;;;;;;;8.70;4.38;;;23.00;89.60;;;;;;6217765;28;87807;-70
2023/10/17 16:25:49;;;;;;;5.78;3.42;;;23.00;89.70;;;;;;6215126;28;87515;-69
2023/10/17 16:28:54;;;;;;;3.35;2.97;;;23.00;89.90;;;;;;6225573;28;87367;-69
2023/10/17 16:32:02;;;;;;;4.90;3.35;;;23.00;90.00;;;;;;6232233;28;88304;-69
2023/10/17 16:35:07;;;;;;;4.97;3.30;;;23.00;90.10;;;;;;6219141;28;87985;-70
2023/10/17 16:38:11;;;;;;;5.53;3.55;;;23.00;90.10;;;;;;6232190;28;89005;-69
2023/10/17 16:41:15;;;;;;;6.80;4.07;;;23.00;90.20;;;;;;6218564;28;88027;-70
2023/10/17 16:44:19;;;;;;;5.22;3.30;;;23.00;90.00;;;;;;6209041;28;88410;-70
2023/10/17 16:47:26;;;;;;;5.38;3.97;;;23.00;90.10;;;;;;6221087;28;88870;-70
2023/10/17 16:50:30;;;;;;;7.00;3.83;;;23.00;90.00;;;;;;6212791;28;87706;-69
2023/10/17 16:53:35;;;;;;;7.10;3.92;;;23.00;90.10;;;;;;6219241;28;87138;-70
2023/10/17 16:56:40;;;;;;;6.97;3.90;;;23.00;90.50;;;;;;6221939;28;88134;-70
2023/10/17 16:59:46;;;;;;;5.80;3.80;;;23.00;90.10;;;;;;6209517;28;86378;-70
2023/10/17 17:02:56;;;;;;;7.60;4.20;;;23.00;90.10;;;;;;6228221;28;89068;-70
2023/10/17 17:06:07;;;;;;;6.63;4.10;;;23.00;90.20;;;;;;6221644;28;88112;-70
2023/10/17 17:09:23;;;;;;;8.32;4.38;;;23.00;90.20;;;;;;6229569;28;89016;-69
2023/10/17 17:12:31;;;;;;;6.40;4.05;;;23.00;90.20;;;;;;6218523;28;88023;-70
2023/10/17 17:15:37;;;;;;;5.32;3.40;;;23.00;90.20;;;;;;6229581;28;88353;-69
2023/10/17 17:18:49;;;;;;;4.45;3.35;;;22.90;90.20;;;;;;6211418;28;88303;-70
2023/10/17 17:21:54;;;;;;;4.90;3.28;;;22.90;90.30;;;;;;6220301;28;88031;-70
2023/10/17 17:25:02;;;;;;;3.78;3.17;;;22.90;90.40;;;;;;6217697;28;88103;-69
2023/10/17 17:28:12;;;;;;;4.43;3.22;;;23.00;90.50;;;;;;6219497;28;89382;-69
2023/10/17 17:31:19;;;;;;;5.20;3.47;;;22.90;90.50;;;;;;6217748;28;87437;-69
2023/10/17 17:34:25;;;;;;;5.88;3.50;;;22.90;90.60;;;;;;6221211;28;88070;-70
2023/10/17 17:37:36;;;;;;;5.47;3.50;;;22.90;90.40;;;;;;6215171;28;88085;-69
2023/10/17 17:44:09;;;;;;;5.72;3.45;;;22.90;90.30;;;;;;6214985;28;89258;-70
2023/10/17 17:47:17;;;;;;;5.18;3.58;;;22.90;90.40;;;;;;6182277;28;87055;-70
2023/10/17 17:50:29;;;;;;;10.00;4.47;;;22.90;90.40;;;;;;6220112;28;88012;-70